sensor_id;sensor_type;location;lat;lon;timestamp;P1;durP1;ratioP1;P2;durP2;ratioP2
60608;SDS011;48221;53.528;9.884;2023-02-13T00:01:05;0.95;;;0.95;;
60608;SDS011;48221;53.528;9.884;2023-02-13T00:03:30;0.68;;;0.68;;
60608;SDS011;48221;53.528;9.884;2023-02-13T00:05:55;1.15;;;1.08;;
60608;SDS011;48221;53.528;9.884;2023-02-13T00:08:21;0.82;;;0.82;;
60608;SDS011;48221;53.528;9.884;2023-02-13T00:10:47;2.15;;;1.40;;
60608;SDS011;48221;53.528;9.884;2023-02-13T00:13:12;1.63;;;1.52;;
60608;SDS011;48221;53.528;9.884;2023-02-13T00:15:37;1.95;;;1.70;;
60608;SDS011;48221;53.528;9.884;2023-02-13T00:18:03;6.20;;;2.65;;
60608;SDS011;48221;53.528;9.884;2023-02-13T00:20:28;2.42;;;2.05;;
60608;SDS011;48221;53.528;9.884;2023-02-13T00:22:54;2.05;;;1.83;;
60608;SDS011;48221;53.528;9.884;2023-02-13T00:25:19;3.05;;;1.95;;
60608;SDS011;48221;53.528;9.884;2023-02-13T00:27:44;3.15;;;2.58;;
60608;SDS011;48221;53.528;9.884;2023-02-13T00:30:10;2.08;;;1.88;;
60608;SDS011;48221;53.528;9.884;2023-02-13T00:32:35;2.50;;;2.17;;
60608;SDS011;48221;53.528;9.884;2023-02-13T00:35:01;6.22;;;3.30;;
60608;SDS011;48221;53.528;9.884;2023-02-13T00:37:27;3.72;;;2.72;;
60608;SDS011;48221;53.528;9.884;2023-02-13T00:39:52;3.08;;;2.38;;
60608;SDS011;48221;53.528;9.884;2023-02-13T00:42:17;2.55;;;2.35;;
60608;SDS011;48221;53.528;9.884;2023-02-13T00:44:44;2.42;;;2.22;;
60608;SDS011;48221;53.528;9.884;2023-02-13T00:47:09;3.53;;;2.38;;
60608;SDS011;48221;53.528;9.884;2023-02-13T00:49:38;3.00;;;2.13;;
60608;SDS011;48221;53.528;9.884;2023-02-13T00:52:03;3.33;;;2.70;;
60608;SDS011;48221;53.528;9.884;2023-02-13T00:54:29;3.70;;;2.72;;
60608;SDS011;48221;53.528;9.884;2023-02-13T00:56:54;2.38;;;2.13;;
60608;SDS011;48221;53.528;9.884;2023-02-13T00:59:19;3.80;;;2.15;;
60608;SDS011;48221;53.528;9.884;2023-02-13T01:01:44;4.40;;;3.28;;
60608;SDS011;48221;53.528;9.884;2023-02-13T01:04:10;4.57;;;2.95;;
60608;SDS011;48221;53.528;9.884;2023-02-13T01:06:35;5.60;;;2.55;;
60608;SDS011;48221;53.528;9.884;2023-02-13T01:09:01;5.63;;;2.83;;
60608;SDS011;48221;53.528;9.884;2023-02-13T01:11:28;3.58;;;2.60;;
60608;SDS011;48221;53.528;9.884;2023-02-13T01:13:53;4.93;;;3.22;;
60608;SDS011;48221;53.528;9.884;2023-02-13T01:16:18;4.22;;;3.25;;
60608;SDS011;48221;53.528;9.884;2023-02-13T01:18:44;3.30;;;2.47;;
60608;SDS011;48221;53.528;9.884;2023-02-13T01:21:13;4.10;;;2.88;;
60608;SDS011;48221;53.528;9.884;2023-02-13T01:23:42;6.40;;;2.20;;
60608;SDS011;48221;53.528;9.884;2023-02-13T01:26:08;2.35;;;2.13;;
60608;SDS011;48221;53.528;9.884;2023-02-13T01:28:37;2.55;;;2.33;;
60608;SDS011;48221;53.528;9.884;2023-02-13T01:31:02;1.77;;;1.67;;
60608;SDS011;48221;53.528;9.884;2023-02-13T01:33:28;2.60;;;2.03;;
60608;SDS011;48221;53.528;9.884;2023-02-13T01:35:54;3.15;;;2.15;;
60608;SDS011;48221;53.528;9.884;2023-02-13T01:38:19;2.58;;;1.98;;
60608;SDS011;48221;53.528;9.884;2023-02-13T01:40:53;2.33;;;2.08;;
60608;SDS011;48221;53.528;9.884;2023-02-13T01:43:19;4.40;;;2.42;;
60608;SDS011;48221;53.528;9.884;2023-02-13T01:45:47;4.00;;;2.92;;
60608;SDS011;48221;53.528;9.884;2023-02-13T01:48:18;3.15;;;2.33;;
60608;SDS011;48221;53.528;9.884;2023-02-13T01:51:01;3.10;;;2.08;;
60608;SDS011;48221;53.528;9.884;2023-02-13T01:53:34;3.15;;;2.17;;
60608;SDS011;48221;53.528;9.884;2023-02-13T01:58:39;2.30;;;2.10;;
60608;SDS011;48221;53.528;9.884;2023-02-13T02:01:07;3.08;;;2.13;;
60608;SDS011;48221;53.528;9.884;2023-02-13T02:03:38;2.92;;;2.40;;
60608;SDS011;48221;53.528;9.884;2023-02-13T02:06:13;1.95;;;1.75;;
60608;SDS011;48221;53.528;9.884;2023-02-13T02:08:49;4.32;;;1.90;;
60608;SDS011;48221;53.528;9.884;2023-02-13T02:11:24;1.88;;;1.75;;
60608;SDS011;48221;53.528;9.884;2023-02-13T02:13:56;3.38;;;2.03;;
60608;SDS011;48221;53.528;9.884;2023-02-13T02:16:22;1.40;;;1.30;;
60608;SDS011;48221;53.528;9.884;2023-02-13T02:18:49;1.33;;;1.23;;
60608;SDS011;48221;53.528;9.884;2023-02-13T02:21:24;1.40;;;1.30;;
60608;SDS011;48221;53.528;9.884;2023-02-13T02:24:14;2.90;;;2.00;;
60608;SDS011;48221;53.528;9.884;2023-02-13T02:41:24;1.20;;;1.10;;
60608;SDS011;48221;53.528;9.884;2023-02-13T02:46:54;1.33;;;1.02;;
60608;SDS011;48221;53.528;9.884;2023-02-13T02:49:45;1.13;;;1.02;;
60608;SDS011;48221;53.528;9.884;2023-02-13T02:55:02;0.73;;;0.73;;
60608;SDS011;48221;53.528;9.884;2023-02-13T02:57:32;1.00;;;1.00;;
60608;SDS011;48221;53.528;9.884;2023-02-13T03:00:38;2.25;;;1.88;;
60608;SDS011;48221;53.528;9.884;2023-02-13T03:03:24;2.00;;;1.83;;
60608;SDS011;48221;53.528;9.884;2023-02-13T03:06:11;2.03;;;1.77;;
60608;SDS011;48221;53.528;9.884;2023-02-13T03:08:41;1.77;;;1.50;;
60608;SDS011;48221;53.528;9.884;2023-02-13T03:11:28;1.75;;;1.40;;
60608;SDS011;48221;53.528;9.884;2023-02-13T03:14:12;1.52;;;1.42;;
60608;SDS011;48221;53.528;9.884;2023-02-13T03:16:43;1.23;;;1.10;;
60608;SDS011;48221;53.528;9.884;2023-02-13T03:19:42;0.95;;;0.95;;
60608;SDS011;48221;53.528;9.884;2023-02-13T03:36:28;1.58;;;1.48;;
60608;SDS011;48221;53.528;9.884;2023-02-13T03:39:17;1.48;;;1.27;;
60608;SDS011;48221;53.528;9.884;2023-02-13T03:42:20;1.80;;;1.70;;
60608;SDS011;48221;53.528;9.884;2023-02-13T03:45:48;1.63;;;1.52;;
60608;SDS011;48221;53.528;9.884;2023-02-13T03:48:15;2.85;;;2.45;;
60608;SDS011;48221;53.528;9.884;2023-02-13T03:51:04;3.70;;;2.38;;
60608;SDS011;48221;53.528;9.884;2023-02-13T03:53:33;2.38;;;2.03;;
60608;SDS011;48221;53.528;9.884;2023-02-13T03:56:02;2.38;;;2.17;;
60608;SDS011;48221;53.528;9.884;2023-02-13T03:58:49;2.53;;;2.10;;
60608;SDS011;48221;53.528;9.884;2023-02-13T04:01:36;3.63;;;2.20;;
60608;SDS011;48221;53.528;9.884;2023-02-13T04:04:14;1.70;;;1.60;;
60608;SDS011;48221;53.528;9.884;2023-02-13T04:09:20;1.80;;;1.70;;
60608;SDS011;48221;53.528;9.884;2023-02-13T04:15:01;3.00;;;1.98;;
60608;SDS011;48221;53.528;9.884;2023-02-13T04:17:32;3.03;;;2.28;;
60608;SDS011;48221;53.528;9.884;2023-02-13T04:20:01;4.43;;;2.60;;
60608;SDS011;48221;53.528;9.884;2023-02-13T04:22:28;2.63;;;2.00;;
60608;SDS011;48221;53.528;9.884;2023-02-13T04:24:53;3.55;;;2.30;;
60608;SDS011;48221;53.528;9.884;2023-02-13T04:27:19;3.67;;;2.65;;
60608;SDS011;48221;53.528;9.884;2023-02-13T04:29:44;3.25;;;2.40;;
60608;SDS011;48221;53.528;9.884;2023-02-13T04:32:10;4.15;;;2.70;;
60608;SDS011;48221;53.528;9.884;2023-02-13T04:34:35;5.78;;;3.08;;
60608;SDS011;48221;53.528;9.884;2023-02-13T04:37:01;3.13;;;2.63;;
60608;SDS011;48221;53.528;9.884;2023-02-13T04:39:27;4.05;;;2.22;;
60608;SDS011;48221;53.528;9.884;2023-02-13T04:41:52;1.60;;;1.50;;
60608;SDS011;48221;53.528;9.884;2023-02-13T04:44:17;1.27;;;1.27;;
60608;SDS011;48221;53.528;9.884;2023-02-13T04:46:42;1.20;;;1.13;;
60608;SDS011;48221;53.528;9.884;2023-02-13T04:49:09;1.20;;;1.10;;
60608;SDS011;48221;53.528;9.884;2023-02-13T04:51:34;1.45;;;1.35;;
60608;SDS011;48221;53.528;9.884;2023-02-13T04:54:00;1.50;;;1.40;;
60608;SDS011;48221;53.528;9.884;2023-02-13T04:56:25;1.40;;;1.30;;
60608;SDS011;48221;53.528;9.884;2023-02-13T04:58:50;2.42;;;1.23;;
60608;SDS011;48221;53.528;9.884;2023-02-13T05:01:16;0.80;;;0.80;;
60608;SDS011;48221;53.528;9.884;2023-02-13T05:03:41;0.98;;;0.98;;
60608;SDS011;48221;53.528;9.884;2023-02-13T05:06:07;1.20;;;1.10;;
60608;SDS011;48221;53.528;9.884;2023-02-13T05:08:33;1.13;;;1.02;;
60608;SDS011;48221;53.528;9.884;2023-02-13T05:10:58;0.90;;;0.90;;
60608;SDS011;48221;53.528;9.884;2023-02-13T05:13:24;1.30;;;1.20;;
60608;SDS011;48221;53.528;9.884;2023-02-13T05:15:49;1.35;;;1.08;;
60608;SDS011;48221;53.528;9.884;2023-02-13T05:18:16;2.50;;;1.75;;
60608;SDS011;48221;53.528;9.884;2023-02-13T05:20:41;1.42;;;1.30;;
60608;SDS011;48221;53.528;9.884;2023-02-13T05:23:07;0.85;;;0.85;;
60608;SDS011;48221;53.528;9.884;2023-02-13T05:25:46;2.55;;;1.13;;
60608;SDS011;48221;53.528;9.884;2023-02-13T05:28:12;1.45;;;1.35;;
60608;SDS011;48221;53.528;9.884;2023-02-13T05:30:56;1.20;;;1.10;;
60608;SDS011;48221;53.528;9.884;2023-02-13T05:33:22;1.17;;;1.02;;
60608;SDS011;48221;53.528;9.884;2023-02-13T05:35:47;1.30;;;1.20;;
60608;SDS011;48221;53.528;9.884;2023-02-13T05:38:13;2.83;;;1.83;;
60608;SDS011;48221;53.528;9.884;2023-02-13T05:40:38;3.53;;;2.20;;
60608;SDS011;48221;53.528;9.884;2023-02-13T05:43:03;2.85;;;2.30;;
60608;SDS011;48221;53.528;9.884;2023-02-13T05:45:28;1.80;;;1.70;;
60608;SDS011;48221;53.528;9.884;2023-02-13T05:47:54;1.83;;;1.73;;
60608;SDS011;48221;53.528;9.884;2023-02-13T05:50:19;2.05;;;1.85;;
60608;SDS011;48221;53.528;9.884;2023-02-13T05:52:44;2.13;;;1.75;;
60608;SDS011;48221;53.528;9.884;2023-02-13T05:55:09;1.80;;;1.70;;
60608;SDS011;48221;53.528;9.884;2023-02-13T05:57:35;1.88;;;1.77;;
60608;SDS011;48221;53.528;9.884;2023-02-13T06:00:00;1.50;;;1.38;;
60608;SDS011;48221;53.528;9.884;2023-02-13T06:02:25;1.50;;;1.40;;
60608;SDS011;48221;53.528;9.884;2023-02-13T06:04:51;1.63;;;1.52;;
60608;SDS011;48221;53.528;9.884;2023-02-13T06:07:16;1.85;;;1.70;;
60608;SDS011;48221;53.528;9.884;2023-02-13T06:09:41;4.57;;;2.80;;
60608;SDS011;48221;53.528;9.884;2023-02-13T06:12:07;2.65;;;2.13;;
60608;SDS011;48221;53.528;9.884;2023-02-13T06:14:32;3.05;;;2.42;;
60608;SDS011;48221;53.528;9.884;2023-02-13T06:16:57;2.67;;;2.15;;
60608;SDS011;48221;53.528;9.884;2023-02-13T06:19:24;2.40;;;2.20;;
60608;SDS011;48221;53.528;9.884;2023-02-13T06:21:50;3.67;;;2.60;;
60608;SDS011;48221;53.528;9.884;2023-02-13T06:24:15;2.97;;;2.53;;
60608;SDS011;48221;53.528;9.884;2023-02-13T06:26:40;3.78;;;2.20;;
60608;SDS011;48221;53.528;9.884;2023-02-13T06:29:05;3.55;;;2.50;;
60608;SDS011;48221;53.528;9.884;2023-02-13T06:31:32;3.63;;;2.97;;
60608;SDS011;48221;53.528;9.884;2023-02-13T06:33:57;4.85;;;2.90;;
60608;SDS011;48221;53.528;9.884;2023-02-13T06:36:23;5.78;;;3.00;;
60608;SDS011;48221;53.528;9.884;2023-02-13T06:38:48;3.70;;;2.67;;
60608;SDS011;48221;53.528;9.884;2023-02-13T06:41:13;2.67;;;2.47;;
60608;SDS011;48221;53.528;9.884;2023-02-13T06:43:39;2.35;;;2.10;;
60608;SDS011;48221;53.528;9.884;2023-02-13T06:46:04;2.70;;;2.00;;
60608;SDS011;48221;53.528;9.884;2023-02-13T06:48:30;3.47;;;2.30;;
60608;SDS011;48221;53.528;9.884;2023-02-13T06:50:56;3.58;;;2.38;;
60608;SDS011;48221;53.528;9.884;2023-02-13T06:53:21;2.60;;;2.38;;
60608;SDS011;48221;53.528;9.884;2023-02-13T06:55:49;2.35;;;2.15;;
60608;SDS011;48221;53.528;9.884;2023-02-13T06:58:15;2.17;;;1.90;;
60608;SDS011;48221;53.528;9.884;2023-02-13T07:00:41;1.50;;;1.40;;
60608;SDS011;48221;53.528;9.884;2023-02-13T07:03:06;1.70;;;1.60;;
60608;SDS011;48221;53.528;9.884;2023-02-13T07:05:33;1.08;;;1.08;;
60608;SDS011;48221;53.528;9.884;2023-02-13T07:07:59;2.28;;;2.08;;
60608;SDS011;48221;53.528;9.884;2023-02-13T07:10:24;1.77;;;1.60;;
60608;SDS011;48221;53.528;9.884;2023-02-13T07:12:49;1.75;;;1.65;;
60608;SDS011;48221;53.528;9.884;2023-02-13T07:15:14;2.88;;;2.25;;
60608;SDS011;48221;53.528;9.884;2023-02-13T07:17:40;2.40;;;2.10;;
60608;SDS011;48221;53.528;9.884;2023-02-13T07:20:06;2.25;;;2.05;;
60608;SDS011;48221;53.528;9.884;2023-02-13T07:22:32;2.78;;;1.80;;
60608;SDS011;48221;53.528;9.884;2023-02-13T07:24:58;2.15;;;1.95;;
60608;SDS011;48221;53.528;9.884;2023-02-13T07:27:25;1.83;;;1.73;;
60608;SDS011;48221;53.528;9.884;2023-02-13T07:29:53;1.52;;;1.42;;
60608;SDS011;48221;53.528;9.884;2023-02-13T07:32:18;2.13;;;1.92;;
60608;SDS011;48221;53.528;9.884;2023-02-13T07:34:44;5.70;;;2.55;;
60608;SDS011;48221;53.528;9.884;2023-02-13T07:37:09;3.90;;;3.03;;
60608;SDS011;48221;53.528;9.884;2023-02-13T07:39:35;3.55;;;2.58;;
60608;SDS011;48221;53.528;9.884;2023-02-13T07:42:02;3.97;;;2.85;;
60608;SDS011;48221;53.528;9.884;2023-02-13T07:44:29;3.58;;;2.70;;
60608;SDS011;48221;53.528;9.884;2023-02-13T07:46:54;5.60;;;3.13;;
60608;SDS011;48221;53.528;9.884;2023-02-13T07:49:19;4.40;;;2.92;;
60608;SDS011;48221;53.528;9.884;2023-02-13T07:51:44;2.97;;;2.22;;
60608;SDS011;48221;53.528;9.884;2023-02-13T07:54:10;1.63;;;1.52;;
60608;SDS011;48221;53.528;9.884;2023-02-13T07:56:35;3.72;;;2.50;;
60608;SDS011;48221;53.528;9.884;2023-02-13T07:59:00;2.63;;;2.20;;
60608;SDS011;48221;53.528;9.884;2023-02-13T08:01:25;3.72;;;2.67;;
60608;SDS011;48221;53.528;9.884;2023-02-13T08:03:51;4.53;;;3.20;;
60608;SDS011;48221;53.528;9.884;2023-02-13T08:06:17;3.78;;;2.30;;
60608;SDS011;48221;53.528;9.884;2023-02-13T08:08:43;3.00;;;2.15;;
60608;SDS011;48221;53.528;9.884;2023-02-13T08:11:16;2.55;;;2.22;;
60608;SDS011;48221;53.528;9.884;2023-02-13T08:14:10;3.65;;;2.80;;
60608;SDS011;48221;53.528;9.884;2023-02-13T08:16:36;5.85;;;2.40;;
60608;SDS011;48221;53.528;9.884;2023-02-13T08:19:01;2.47;;;2.13;;
60608;SDS011;48221;53.528;9.884;2023-02-13T08:21:26;3.10;;;2.22;;
60608;SDS011;48221;53.528;9.884;2023-02-13T08:23:51;3.15;;;2.17;;
60608;SDS011;48221;53.528;9.884;2023-02-13T08:26:17;3.15;;;2.20;;
60608;SDS011;48221;53.528;9.884;2023-02-13T08:28:42;1.98;;;1.83;;
60608;SDS011;48221;53.528;9.884;2023-02-13T08:31:11;2.85;;;2.13;;
60608;SDS011;48221;53.528;9.884;2023-02-13T08:33:36;1.73;;;1.63;;
60608;SDS011;48221;53.528;9.884;2023-02-13T08:36:02;1.40;;;1.30;;
60608;SDS011;48221;53.528;9.884;2023-02-13T08:38:28;1.90;;;1.80;;
60608;SDS011;48221;53.528;9.884;2023-02-13T08:40:55;3.53;;;2.10;;
60608;SDS011;48221;53.528;9.884;2023-02-13T08:43:21;2.20;;;1.60;;
60608;SDS011;48221;53.528;9.884;2023-02-13T08:45:46;2.55;;;1.83;;
60608;SDS011;48221;53.528;9.884;2023-02-13T08:48:12;2.97;;;2.40;;
60608;SDS011;48221;53.528;9.884;2023-02-13T08:50:37;3.17;;;2.28;;
60608;SDS011;48221;53.528;9.884;2023-02-13T08:53:02;5.10;;;3.00;;
60608;SDS011;48221;53.528;9.884;2023-02-13T08:55:28;3.92;;;2.78;;
60608;SDS011;48221;53.528;9.884;2023-02-13T08:57:57;3.58;;;2.35;;
60608;SDS011;48221;53.528;9.884;2023-02-13T09:00:23;3.40;;;2.25;;
60608;SDS011;48221;53.528;9.884;2023-02-13T09:02:48;3.08;;;2.30;;
60608;SDS011;48221;53.528;9.884;2023-02-13T09:05:14;2.00;;;1.77;;
60608;SDS011;48221;53.528;9.884;2023-02-13T09:07:39;1.40;;;1.30;;
60608;SDS011;48221;53.528;9.884;2023-02-13T09:10:05;2.60;;;2.20;;
60608;SDS011;48221;53.528;9.884;2023-02-13T09:12:30;2.90;;;1.90;;
60608;SDS011;48221;53.528;9.884;2023-02-13T09:14:56;2.30;;;2.10;;
60608;SDS011;48221;53.528;9.884;2023-02-13T09:17:21;3.15;;;2.42;;
60608;SDS011;48221;53.528;9.884;2023-02-13T09:19:46;2.72;;;2.33;;
60608;SDS011;48221;53.528;9.884;2023-02-13T09:22:11;2.80;;;2.20;;
60608;SDS011;48221;53.528;9.884;2023-02-13T09:24:37;1.88;;;1.75;;
60608;SDS011;48221;53.528;9.884;2023-02-13T09:27:03;3.40;;;2.47;;
60608;SDS011;48221;53.528;9.884;2023-02-13T09:29:29;2.90;;;2.35;;
60608;SDS011;48221;53.528;9.884;2023-02-13T09:31:55;7.03;;;2.58;;
60608;SDS011;48221;53.528;9.884;2023-02-13T09:34:21;2.50;;;2.20;;
60608;SDS011;48221;53.528;9.884;2023-02-13T09:36:50;2.60;;;1.90;;
60608;SDS011;48221;53.528;9.884;2023-02-13T09:39:17;3.15;;;2.40;;
60608;SDS011;48221;53.528;9.884;2023-02-13T09:41:42;3.17;;;2.55;;
60608;SDS011;48221;53.528;9.884;2023-02-13T09:44:19;3.92;;;2.75;;
60608;SDS011;48221;53.528;9.884;2023-02-13T09:49:41;3.75;;;2.60;;
60608;SDS011;48221;53.528;9.884;2023-02-13T09:52:10;6.25;;;3.40;;
60608;SDS011;48221;53.528;9.884;2023-02-13T09:54:36;7.10;;;3.55;;
60608;SDS011;48221;53.528;9.884;2023-02-13T09:57:02;5.43;;;3.70;;
60608;SDS011;48221;53.528;9.884;2023-02-13T10:02:29;5.90;;;3.50;;
60608;SDS011;48221;53.528;9.884;2023-02-13T10:10:17;5.70;;;3.65;;
60608;SDS011;48221;53.528;9.884;2023-02-13T10:15:37;4.55;;;3.20;;
60608;SDS011;48221;53.528;9.884;2023-02-13T10:18:13;4.28;;;3.28;;
60608;SDS011;48221;53.528;9.884;2023-02-13T10:20:44;3.35;;;2.67;;
60608;SDS011;48221;53.528;9.884;2023-02-13T10:25:53;5.20;;;3.65;;
60608;SDS011;48221;53.528;9.884;2023-02-13T10:28:30;5.20;;;3.40;;
60608;SDS011;48221;53.528;9.884;2023-02-13T10:30:57;6.70;;;3.75;;
60608;SDS011;48221;53.528;9.884;2023-02-13T10:33:29;6.55;;;3.97;;
60608;SDS011;48221;53.528;9.884;2023-02-13T10:38:34;5.68;;;3.60;;
60608;SDS011;48221;53.528;9.884;2023-02-13T10:54:20;7.85;;;4.15;;
60608;SDS011;48221;53.528;9.884;2023-02-13T10:59:45;4.57;;;3.17;;
60608;SDS011;48221;53.528;9.884;2023-02-13T11:02:25;7.78;;;3.35;;
60608;SDS011;48221;53.528;9.884;2023-02-13T11:04:56;4.93;;;3.33;;
60608;SDS011;48221;53.528;9.884;2023-02-13T11:09:55;4.23;;;3.10;;
60608;SDS011;48221;53.528;9.884;2023-02-13T11:12:27;4.75;;;3.25;;
60608;SDS011;48221;53.528;9.884;2023-02-13T11:14:59;8.30;;;5.30;;
60608;SDS011;48221;53.528;9.884;2023-02-13T11:17:28;6.38;;;3.92;;
60608;SDS011;48221;53.528;9.884;2023-02-13T11:19:56;8.05;;;4.28;;
60608;SDS011;48221;53.528;9.884;2023-02-13T11:25:20;8.70;;;5.25;;
60608;SDS011;48221;53.528;9.884;2023-02-13T11:27:49;5.25;;;3.70;;
60608;SDS011;48221;53.528;9.884;2023-02-13T11:32:55;5.72;;;3.95;;
60608;SDS011;48221;53.528;9.884;2023-02-13T11:35:25;5.90;;;3.85;;
60608;SDS011;48221;53.528;9.884;2023-02-13T11:38:04;4.82;;;3.55;;
60608;SDS011;48221;53.528;9.884;2023-02-13T11:40:45;4.10;;;3.05;;
60608;SDS011;48221;53.528;9.884;2023-02-13T11:46:04;5.30;;;4.05;;
60608;SDS011;48221;53.528;9.884;2023-02-13T11:48:57;6.22;;;3.97;;
60608;SDS011;48221;53.528;9.884;2023-02-13T11:51:41;8.23;;;5.20;;
60608;SDS011;48221;53.528;9.884;2023-02-13T11:54:18;3.85;;;3.28;;
60608;SDS011;48221;53.528;9.884;2023-02-13T11:56:47;8.70;;;4.82;;
60608;SDS011;48221;53.528;9.884;2023-02-13T11:59:14;7.55;;;4.30;;
60608;SDS011;48221;53.528;9.884;2023-02-13T12:01:40;6.82;;;3.72;;
60608;SDS011;48221;53.528;9.884;2023-02-13T12:04:17;7.70;;;3.95;;
60608;SDS011;48221;53.528;9.884;2023-02-13T12:07:00;4.57;;;3.40;;
60608;SDS011;48221;53.528;9.884;2023-02-13T12:09:27;8.48;;;4.10;;
60608;SDS011;48221;53.528;9.884;2023-02-13T12:11:54;9.73;;;4.18;;
60608;SDS011;48221;53.528;9.884;2023-02-13T12:14:26;5.78;;;3.70;;
60608;SDS011;48221;53.528;9.884;2023-02-13T12:19:47;8.30;;;4.65;;
60608;SDS011;48221;53.528;9.884;2023-02-13T12:22:36;9.57;;;5.57;;
60608;SDS011;48221;53.528;9.884;2023-02-13T12:28:05;18.13;;;4.60;;
60608;SDS011;48221;53.528;9.884;2023-02-13T12:36:24;5.88;;;4.13;;
60608;SDS011;48221;53.528;9.884;2023-02-13T12:39:16;9.95;;;5.18;;
60608;SDS011;48221;53.528;9.884;2023-02-13T12:44:35;4.97;;;3.83;;
60608;SDS011;48221;53.528;9.884;2023-02-13T12:47:33;5.55;;;3.35;;
60608;SDS011;48221;53.528;9.884;2023-02-13T12:50:19;6.97;;;3.67;;
60608;SDS011;48221;53.528;9.884;2023-02-13T13:06:42;6.82;;;4.13;;
60608;SDS011;48221;53.528;9.884;2023-02-13T13:25:53;5.53;;;3.70;;
60608;SDS011;48221;53.528;9.884;2023-02-13T13:28:39;6.60;;;4.10;;
60608;SDS011;48221;53.528;9.884;2023-02-13T13:31:07;5.03;;;3.50;;
60608;SDS011;48221;53.528;9.884;2023-02-13T13:33:34;5.03;;;3.20;;
60608;SDS011;48221;53.528;9.884;2023-02-13T13:41:21;7.47;;;4.07;;
60608;SDS011;48221;53.528;9.884;2023-02-13T13:44:08;4.88;;;3.30;;
60608;SDS011;48221;53.528;9.884;2023-02-13T13:46:46;5.65;;;2.95;;
60608;SDS011;48221;53.528;9.884;2023-02-13T13:49:33;7.38;;;4.78;;
60608;SDS011;48221;53.528;9.884;2023-02-13T13:52:17;9.43;;;5.30;;
60608;SDS011;48221;53.528;9.884;2023-02-13T13:54:46;5.22;;;3.15;;
60608;SDS011;48221;53.528;9.884;2023-02-13T13:57:15;11.95;;;5.18;;
60608;SDS011;48221;53.528;9.884;2023-02-13T14:07:44;7.07;;;3.88;;
60608;SDS011;48221;53.528;9.884;2023-02-13T14:12:46;10.23;;;5.15;;
60608;SDS011;48221;53.528;9.884;2023-02-13T14:15:47;8.55;;;4.68;;
60608;SDS011;48221;53.528;9.884;2023-02-13T14:20:42;4.43;;;3.40;;
60608;SDS011;48221;53.528;9.884;2023-02-13T14:28:34;6.13;;;3.38;;
60608;SDS011;48221;53.528;9.884;2023-02-13T14:31:04;6.40;;;4.07;;
60608;SDS011;48221;53.528;9.884;2023-02-13T14:33:33;6.10;;;3.95;;
60608;SDS011;48221;53.528;9.884;2023-02-13T14:36:03;5.47;;;3.70;;
60608;SDS011;48221;53.528;9.884;2023-02-13T14:38:32;3.25;;;2.20;;
60608;SDS011;48221;53.528;9.884;2023-02-13T14:40:59;9.07;;;3.17;;
60608;SDS011;48221;53.528;9.884;2023-02-13T14:43:32;4.63;;;2.92;;
60608;SDS011;48221;53.528;9.884;2023-02-13T14:46:07;3.63;;;2.30;;
60608;SDS011;48221;53.528;9.884;2023-02-13T14:51:25;1.75;;;1.48;;
60608;SDS011;48221;53.528;9.884;2023-02-13T14:54:48;2.15;;;1.92;;
60608;SDS011;48221;53.528;9.884;2023-02-13T14:56:51;1.42;;;1.33;;
60608;SDS011;48221;53.528;9.884;2023-02-13T14:59:23;1.48;;;1.38;;
60608;SDS011;48221;53.528;9.884;2023-02-13T15:02:01;4.85;;;2.58;;
60608;SDS011;48221;53.528;9.884;2023-02-13T15:04:38;5.93;;;3.43;;
60608;SDS011;48221;53.528;9.884;2023-02-13T15:07:12;3.60;;;2.50;;
60608;SDS011;48221;53.528;9.884;2023-02-13T15:09:43;3.58;;;2.65;;
60608;SDS011;48221;53.528;9.884;2023-02-13T15:12:32;5.03;;;3.58;;
60608;SDS011;48221;53.528;9.884;2023-02-13T15:14:59;6.07;;;3.95;;
60608;SDS011;48221;53.528;9.884;2023-02-13T15:19:56;7.18;;;3.63;;
60608;SDS011;48221;53.528;9.884;2023-02-13T15:22:30;4.57;;;2.75;;
60608;SDS011;48221;53.528;9.884;2023-02-13T15:24:57;6.07;;;3.20;;
60608;SDS011;48221;53.528;9.884;2023-02-13T15:27:26;8.95;;;5.22;;
60608;SDS011;48221;53.528;9.884;2023-02-13T15:29:55;6.55;;;4.20;;
60608;SDS011;48221;53.528;9.884;2023-02-13T15:32:25;6.47;;;3.30;;
60608;SDS011;48221;53.528;9.884;2023-02-13T15:35:00;3.92;;;2.65;;
60608;SDS011;48221;53.528;9.884;2023-02-13T15:37:33;3.20;;;2.22;;
60608;SDS011;48221;53.528;9.884;2023-02-13T15:43:03;6.45;;;3.42;;
60608;SDS011;48221;53.528;9.884;2023-02-13T15:45:46;10.68;;;2.70;;
60608;SDS011;48221;53.528;9.884;2023-02-13T15:48:13;5.38;;;3.33;;
60608;SDS011;48221;53.528;9.884;2023-02-13T15:50:40;7.60;;;3.85;;
60608;SDS011;48221;53.528;9.884;2023-02-13T15:53:09;6.32;;;3.78;;
60608;SDS011;48221;53.528;9.884;2023-02-13T15:55:38;4.30;;;3.03;;
60608;SDS011;48221;53.528;9.884;2023-02-13T15:58:04;4.13;;;2.78;;
60608;SDS011;48221;53.528;9.884;2023-02-13T16:00:32;6.80;;;3.28;;
60608;SDS011;48221;53.528;9.884;2023-02-13T16:03:00;4.72;;;3.08;;
60608;SDS011;48221;53.528;9.884;2023-02-13T16:05:29;5.47;;;3.30;;
60608;SDS011;48221;53.528;9.884;2023-02-13T16:07:59;3.17;;;2.35;;
60608;SDS011;48221;53.528;9.884;2023-02-13T16:10:29;4.57;;;2.70;;
60608;SDS011;48221;53.528;9.884;2023-02-13T16:12:56;5.28;;;2.47;;
60608;SDS011;48221;53.528;9.884;2023-02-13T16:15:24;2.28;;;1.98;;
60608;SDS011;48221;53.528;9.884;2023-02-13T16:17:53;5.05;;;3.15;;
60608;SDS011;48221;53.528;9.884;2023-02-13T16:20:20;4.43;;;3.15;;
60608;SDS011;48221;53.528;9.884;2023-02-13T16:22:53;3.70;;;2.60;;
60608;SDS011;48221;53.528;9.884;2023-02-13T16:25:22;4.32;;;2.38;;
60608;SDS011;48221;53.528;9.884;2023-02-13T16:27:56;5.78;;;3.25;;
60608;SDS011;48221;53.528;9.884;2023-02-13T16:36:15;4.65;;;3.20;;
60608;SDS011;48221;53.528;9.884;2023-02-13T16:38:44;5.95;;;3.50;;
60608;SDS011;48221;53.528;9.884;2023-02-13T16:46:34;7.78;;;4.32;;
60608;SDS011;48221;53.528;9.884;2023-02-13T16:51:43;3.60;;;2.70;;
60608;SDS011;48221;53.528;9.884;2023-02-13T16:56:46;3.40;;;2.50;;
60608;SDS011;48221;53.528;9.884;2023-02-13T16:59:31;5.63;;;1.88;;
60608;SDS011;48221;53.528;9.884;2023-02-13T17:04:55;2.38;;;2.05;;
60608;SDS011;48221;53.528;9.884;2023-02-13T17:07:39;5.40;;;2.35;;
60608;SDS011;48221;53.528;9.884;2023-02-13T17:10:29;2.55;;;1.88;;
60608;SDS011;48221;53.528;9.884;2023-02-13T17:12:58;5.00;;;2.50;;
60608;SDS011;48221;53.528;9.884;2023-02-13T17:15:26;3.53;;;2.55;;
60608;SDS011;48221;53.528;9.884;2023-02-13T17:17:53;3.95;;;2.90;;
60608;SDS011;48221;53.528;9.884;2023-02-13T17:20:23;3.97;;;2.60;;
60608;SDS011;48221;53.528;9.884;2023-02-13T17:22:53;2.40;;;2.00;;
60608;SDS011;48221;53.528;9.884;2023-02-13T17:25:24;2.88;;;2.10;;
60608;SDS011;48221;53.528;9.884;2023-02-13T17:27:53;2.80;;;1.83;;
60608;SDS011;48221;53.528;9.884;2023-02-13T17:30:25;1.63;;;1.52;;
60608;SDS011;48221;53.528;9.884;2023-02-13T17:32:57;3.80;;;1.70;;
60608;SDS011;48221;53.528;9.884;2023-02-13T17:35:30;1.63;;;1.52;;
60608;SDS011;48221;53.528;9.884;2023-02-13T17:37:56;2.38;;;1.73;;
60608;SDS011;48221;53.528;9.884;2023-02-13T17:40:22;2.83;;;2.13;;
60608;SDS011;48221;53.528;9.884;2023-02-13T17:42:50;2.72;;;2.03;;
60608;SDS011;48221;53.528;9.884;2023-02-13T17:45:17;2.30;;;2.00;;
60608;SDS011;48221;53.528;9.884;2023-02-13T17:47:44;1.70;;;1.60;;
60608;SDS011;48221;53.528;9.884;2023-02-13T17:50:10;2.15;;;1.75;;
60608;SDS011;48221;53.528;9.884;2023-02-13T17:52:37;1.63;;;1.50;;
60608;SDS011;48221;53.528;9.884;2023-02-13T17:55:04;1.73;;;1.50;;
60608;SDS011;48221;53.528;9.884;2023-02-13T17:57:38;1.35;;;1.25;;
60608;SDS011;48221;53.528;9.884;2023-02-13T18:00:03;1.20;;;1.10;;
60608;SDS011;48221;53.528;9.884;2023-02-13T18:02:29;2.17;;;1.38;;
60608;SDS011;48221;53.528;9.884;2023-02-13T18:04:55;2.65;;;1.40;;
60608;SDS011;48221;53.528;9.884;2023-02-13T18:07:20;1.80;;;1.65;;
60608;SDS011;48221;53.528;9.884;2023-02-13T18:09:46;4.07;;;2.60;;